Time;durP1;ratioP1;P1;durP2;ratioP2;P2;SDS_P1;SDS_P2;PMS_P1;PMS_P2;Temp;Humidity;BMP_temperature;BMP_pressure;BME280_temperature;BME280_humidity;BME280_pressure;Samples;Min_cycle;Max_cycle;Signal;HPM_P1;HPM_P2
2023/01/15 00:02:05;;;;;;;8.10;1.23;;;7.50;99.90;;;;;;4982940;28;20389;-90
2023/01/15 00:04:31;;;;;;;4.63;0.90;;;7.60;99.90;;;;;;4980435;28;20101;-90
2023/01/15 00:06:57;;;;;;;8.00;1.42;;;7.50;99.90;;;;;;4959888;28;20054;-91
2023/01/15 00:09:23;;;;;;;7.15;1.42;;;7.50;99.90;;;;;;4976212;28;20037;-90
2023/01/15 00:11:57;;;;;;;9.65;1.63;;;7.50;99.90;;;;;;4995265;28;20063;-89
2023/01/15 00:14:24;;;;;;;7.97;1.55;;;7.50;99.90;;;;;;4967737;28;20549;-90
2023/01/15 00:16:53;;;;;;;6.03;0.90;;;7.50;99.90;;;;;;5016452;28;20022;-90
2023/01/15 00:19:19;;;;;;;5.78;0.95;;;7.50;99.90;;;;;;4998367;28;20025;-90
2023/01/15 00:21:44;;;;;;;5.82;1.23;;;7.50;99.90;;;;;;4980307;28;20037;-90
2023/01/15 00:29:38;;;;;;;6.63;1.00;;;7.40;99.90;;;;;;5012079;28;20065;-90
2023/01/15 00:32:06;;;;;;;10.18;1.30;;;7.40;99.90;;;;;;4985726;28;20026;-90
2023/01/15 00:34:33;;;;;;;6.22;1.00;;;7.40;99.90;;;;;;4996531;28;20089;-89
2023/01/15 00:37:07;;;;;;;5.78;1.30;;;7.40;99.90;;;;;;4979329;28;20033;-92
2023/01/15 00:39:35;;;;;;;7.18;0.90;;;7.30;99.90;;;;;;4979157;28;20034;-89
2023/01/15 00:42:02;;;;;;;6.63;1.40;;;7.40;99.90;;;;;;4994937;28;20473;-91
2023/01/15 00:44:32;;;;;;;6.05;1.20;;;7.30;99.90;;;;;;4982802;28;20078;-91
2023/01/15 00:46:58;;;;;;;9.57;1.58;;;7.40;99.90;;;;;;5000969;28;20485;-90
2023/01/15 00:49:24;;;;;;;7.95;1.20;;;7.30;99.90;;;;;;4985074;28;20093;-89
2023/01/15 00:51:51;;;;;;;6.95;1.10;;;7.40;99.90;;;;;;4984764;28;20030;-90
2023/01/15 00:54:17;;;;;;;7.78;1.10;;;7.30;99.90;;;;;;4995295;28;20064;-90
2023/01/15 00:56:43;;;;;;;7.78;1.42;;;7.40;99.90;;;;;;4971843;28;20022;-89
2023/01/15 00:59:08;;;;;;;10.20;1.30;;;7.40;99.90;;;;;;4981203;28;20363;-89
2023/01/15 01:01:41;;;;;;;9.75;1.77;;;7.40;99.90;;;;;;4997056;28;20022;-90
2023/01/15 01:04:10;;;;;;;9.77;1.73;;;7.40;99.90;;;;;;4996174;28;20034;-90
2023/01/15 01:06:35;;;;;;;6.65;1.30;;;7.40;99.90;;;;;;4978659;28;20459;-89
2023/01/15 01:09:02;;;;;;;7.10;1.20;;;7.30;99.90;;;;;;4993932;28;20025;-89
2023/01/15 01:11:36;;;;;;;12.15;1.52;;;7.40;99.90;;;;;;4981196;28;20035;-90
2023/01/15 01:14:02;;;;;;;8.63;1.25;;;7.30;99.90;;;;;;5015492;28;20037;-89
2023/01/15 01:16:29;;;;;;;11.15;1.85;;;7.40;99.90;;;;;;4986279;28;20390;-90
2023/01/15 01:19:21;;;;;;;10.48;1.70;;;7.30;99.90;;;;;;4980695;28;20056;-89
2023/01/15 01:21:49;;;;;;;11.47;1.53;;;7.30;99.90;;;;;;4975836;28;20034;-89
2023/01/15 01:24:20;;;;;;;10.38;1.70;;;7.30;99.90;;;;;;4942866;28;20059;-91
2023/01/15 01:26:51;;;;;;;7.32;1.63;;;7.30;99.90;;;;;;4979911;28;20030;-90
2023/01/15 01:29:21;;;;;;;8.48;1.23;;;7.30;99.90;;;;;;4981496;28;20069;-89
2023/01/15 01:31:50;;;;;;;8.73;1.50;;;7.30;99.90;;;;;;4998801;28;20434;-92
2023/01/15 01:34:18;;;;;;;9.85;1.60;;;7.20;99.90;;;;;;5015111;28;20034;-91
2023/01/15 01:36:44;;;;;;;8.57;1.90;;;7.30;99.90;;;;;;4981561;28;20084;-93
2023/01/15 01:39:15;;;;;;;7.38;1.40;;;7.20;99.90;;;;;;5005485;28;20029;-90
2023/01/15 01:41:43;;;;;;;7.78;1.15;;;7.30;99.90;;;;;;5034789;28;20021;-90
2023/01/15 01:44:31;;;;;;;7.00;1.05;;;7.20;99.90;;;;;;5007081;28;20112;-89
2023/01/15 01:47:14;;;;;;;11.02;1.60;;;7.20;99.90;;;;;;5004774;28;20090;-90
2023/01/15 01:49:46;;;;;;;14.18;1.50;;;7.20;99.90;;;;;;5034866;28;20029;-89
2023/01/15 01:52:19;;;;;;;6.88;1.20;;;7.20;99.90;;;;;;5008228;28;20120;-90
2023/01/15 01:54:46;;;;;;;;;;;7.10;99.90;;;;;;5015141;28;20029;-91
2023/01/15 01:57:13;;;;;;;9.77;1.60;;;7.10;99.90;;;;;;5014763;28;20354;-89
2023/01/15 01:59:40;;;;;;;8.77;1.27;;;7.10;99.90;;;;;;4997452;28;20049;-89
2023/01/15 02:02:06;;;;;;;7.95;1.45;;;7.10;99.90;;;;;;4996878;28;20080;-88
2023/01/15 02:04:32;;;;;;;9.88;1.45;;;7.10;99.90;;;;;;4996529;28;20030;-89
2023/01/15 02:07:00;;;;;;;10.98;1.30;;;7.10;99.90;;;;;;4997071;28;20026;-88
2023/01/15 02:09:31;;;;;;;8.50;1.48;;;7.10;99.90;;;;;;4996954;28;20064;-89
2023/01/15 02:12:35;;;;;;;8.48;1.40;;;7.00;99.90;;;;;;4997762;28;20041;-89
2023/01/15 02:15:11;;;;;;;;;;;7.00;99.90;;;;;;4935519;29;20431;-89
2023/01/15 02:17:59;;;;;;;8.98;1.90;;;7.00;99.90;;;;;;4951264;28;19916;-89
2023/01/15 02:20:57;;;;;;;8.38;1.00;;;7.00;99.90;;;;;;5014613;28;20396;-89
2023/01/15 02:23:53;;;;;;;10.05;1.08;;;6.90;99.90;;;;;;4996953;28;20111;-89
2023/01/15 02:26:50;;;;;;;8.38;1.20;;;6.90;99.90;;;;;;4989717;28;20037;-89
2023/01/15 02:29:42;;;;;;;8.48;1.25;;;6.90;99.90;;;;;;4996493;28;20050;-89
2023/01/15 02:32:17;;;;;;;6.55;1.23;;;6.90;99.90;;;;;;4995754;28;20391;-89
2023/01/15 02:34:54;;;;;;;7.10;1.05;;;6.90;99.90;;;;;;4995974;28;20013;-88
2023/01/15 02:37:27;;;;;;;9.90;1.38;;;6.80;99.90;;;;;;4997178;28;20032;-89
2023/01/15 02:39:56;;;;;;;10.52;1.38;;;6.80;99.90;;;;;;5014481;28;20057;-89
2023/01/15 02:42:25;;;;;;;8.32;1.30;;;6.80;99.90;;;;;;4996578;28;20034;-89
2023/01/15 02:44:54;;;;;;;5.18;1.08;;;6.80;99.90;;;;;;4996936;28;20029;-88
2023/01/15 02:47:27;;;;;;;8.07;1.30;;;6.70;99.90;;;;;;4996230;28;20026;-88
2023/01/15 02:49:56;;;;;;;6.50;1.10;;;6.70;99.90;;;;;;5015814;28;20501;-87
2023/01/15 02:52:27;;;;;;;5.13;1.15;;;6.70;99.90;;;;;;4998217;28;20026;-89
2023/01/15 02:55:02;;;;;;;9.60;1.65;;;6.70;99.90;;;;;;4996466;28;20029;-88
2023/01/15 02:57:33;;;;;;;10.35;1.65;;;6.70;99.90;;;;;;4996002;28;20030;-88
2023/01/15 03:00:04;;;;;;;6.03;1.38;;;6.60;99.90;;;;;;4996250;28;20081;-87
2023/01/15 03:03:04;;;;;;;8.98;1.23;;;6.60;99.90;;;;;;4995770;28;20496;-89
2023/01/15 03:05:40;;;;;;;9.82;1.23;;;6.60;99.90;;;;;;4973543;28;20030;-88
2023/01/15 03:08:08;;;;;;;5.40;1.10;;;6.70;99.90;;;;;;5013527;28;20018;-89
2023/01/15 03:10:53;;;;;;;9.68;1.55;;;6.70;99.90;;;;;;4995711;28;20026;-89
2023/01/15 03:13:50;;;;;;;10.50;1.67;;;6.70;99.90;;;;;;4995349;28;20053;-89
2023/01/15 03:16:34;;;;;;;9.32;1.70;;;6.70;99.90;;;;;;4996037;28;20026;-88
2023/01/15 03:19:06;;;;;;;;;;;6.70;99.90;;;;;;4996636;28;20512;-88
2023/01/15 03:22:03;;;;;;;8.52;1.67;;;6.70;99.90;;;;;;5013508;28;19912;-88
2023/01/15 03:24:45;;;;;;;7.57;1.40;;;6.70;99.90;;;;;;4993235;28;20025;-88
2023/01/15 03:27:11;;;;;;;4.32;0.77;;;6.70;99.90;;;;;;4996226;28;20030;-89
2023/01/15 03:30:14;;;;;;;7.30;1.13;;;6.60;99.90;;;;;;4979673;28;20066;-88
2023/01/15 03:32:43;;;;;;;8.48;1.95;;;6.60;99.90;;;;;;4956152;28;20038;-88
2023/01/15 03:35:43;;;;;;;7.72;1.10;;;6.60;99.90;;;;;;4996315;28;20489;-88
2023/01/15 03:38:11;;;;;;;5.18;0.80;;;6.60;99.90;;;;;;5012899;28;20026;-88
2023/01/15 03:40:44;;;;;;;6.30;0.77;;;6.60;99.90;;;;;;4995516;28;20069;-88
2023/01/15 03:46:28;;;;;;;5.88;1.10;;;6.60;99.90;;;;;;5015959;28;20041;-89
2023/01/15 03:49:09;;;;;;;9.40;1.20;;;6.60;99.90;;;;;;4985446;28;20049;-88
2023/01/15 03:51:44;;;;;;;8.90;1.65;;;6.50;99.90;;;;;;5017541;28;20062;-88
2023/01/15 03:54:22;;;;;;;7.15;1.02;;;6.50;99.90;;;;;;5016176;28;20080;-89
2023/01/15 03:57:02;;;;;;;7.05;1.05;;;6.50;99.90;;;;;;5016216;28;20014;-89
2023/01/15 03:59:57;;;;;;;7.82;1.05;;;6.50;99.90;;;;;;5016305;28;20065;-88
2023/01/15 04:02:25;;;;;;;5.95;1.20;;;6.50;99.90;;;;;;5015984;28;20124;-89
2023/01/15 04:04:52;;;;;;;8.05;1.70;;;6.50;99.90;;;;;;5017213;28;20030;-89
2023/01/15 04:07:19;;;;;;;6.85;1.40;;;6.50;99.90;;;;;;5015565;28;20508;-89
2023/01/15 04:09:47;;;;;;;7.60;1.30;;;6.50;99.90;;;;;;5015502;28;20083;-89
2023/01/15 04:12:13;;;;;;;5.05;0.85;;;6.50;99.90;;;;;;5015857;28;20068;-89
2023/01/15 04:14:39;;;;;;;7.72;1.27;;;6.50;99.90;;;;;;5015639;28;20057;-89
2023/01/15 04:17:04;;;;;;;7.97;1.10;;;6.50;99.90;;;;;;5016582;28;20022;-89
2023/01/15 04:19:30;;;;;;;7.25;1.67;;;6.50;99.90;;;;;;5014932;28;20030;-90
2023/01/15 04:21:57;;;;;;;5.35;1.17;;;6.50;99.90;;;;;;5016271;28;20478;-89
2023/01/15 04:24:24;;;;;;;12.15;1.60;;;6.50;99.90;;;;;;5016031;28;20134;-90
2023/01/15 04:26:50;;;;;;;11.43;2.45;;;6.50;99.90;;;;;;5015241;28;20509;-89
2023/01/15 04:29:15;;;;;;;6.30;1.00;;;6.50;99.90;;;;;;5017636;28;20128;-89
2023/01/15 04:31:41;;;;;;;5.60;1.00;;;6.50;99.90;;;;;;5018112;28;20032;-88
2023/01/15 04:34:07;;;;;;;13.23;1.20;;;6.50;99.90;;;;;;5036128;28;20385;-88
2023/01/15 04:36:35;;;;;;;7.15;1.33;;;6.50;99.90;;;;;;5017991;28;20479;-89
2023/01/15 04:39:02;;;;;;;10.60;1.25;;;6.40;99.90;;;;;;5018312;28;20030;-88
2023/01/15 04:44:12;;;;;;;11.95;1.52;;;6.40;99.90;;;;;;5036157;28;20044;-89
2023/01/15 04:46:40;;;;;;;5.47;1.08;;;6.40;99.90;;;;;;5018079;28;20513;-89
2023/01/15 04:49:13;;;;;;;17.67;1.73;;;6.40;99.90;;;;;;5018157;28;20048;-89
2023/01/15 04:51:39;;;;;;;8.77;1.50;;;6.50;99.90;;;;;;5018264;28;20025;-88
2023/01/15 04:54:07;;;;;;;6.72;1.27;;;6.40;99.90;;;;;;5035881;28;20022;-89
2023/01/15 04:56:38;;;;;;;5.97;1.17;;;6.40;99.90;;;;;;5016579;28;20104;-89
2023/01/15 04:59:05;;;;;;;9.02;1.58;;;6.40;99.90;;;;;;5018072;28;20029;-88
2023/01/15 05:01:31;;;;;;;9.43;1.02;;;6.40;99.90;;;;;;5017792;28;20041;-88
2023/01/15 05:03:57;;;;;;;8.63;1.77;;;6.50;99.90;;;;;;5017660;28;20060;-88
2023/01/15 05:06:24;;;;;;;9.18;1.48;;;6.50;99.90;;;;;;5001764;28;20065;-89
2023/01/15 05:08:50;;;;;;;7.38;1.55;;;6.50;99.90;;;;;;5017013;28;20038;-89
2023/01/15 05:11:15;;;;;;;7.93;1.88;;;6.50;99.90;;;;;;5017785;28;20040;-89
2023/01/15 05:13:41;;;;;;;7.28;1.35;;;6.50;99.90;;;;;;5017461;28;20464;-88
2023/01/15 05:16:19;;;;;;;9.95;1.63;;;6.50;99.90;;;;;;5017941;28;20080;-88
2023/01/15 05:18:46;;;;;;;8.77;1.30;;;6.60;99.90;;;;;;5017486;28;20029;-89
2023/01/15 05:21:21;;;;;;;12.40;2.10;;;6.60;99.90;;;;;;5035327;28;20029;-88
2023/01/15 05:23:49;;;;;;;9.90;1.85;;;6.50;99.90;;;;;;5018073;28;20036;-89
2023/01/15 05:26:15;;;;;;;12.18;1.95;;;6.40;99.90;;;;;;5017956;28;20025;-88
2023/01/15 05:28:41;;;;;;;10.75;1.75;;;6.40;99.90;;;;;;5017811;28;20022;-89
2023/01/15 05:31:13;;;;;;;7.72;1.40;;;6.30;99.90;;;;;;5036145;28;20045;-89
2023/01/15 05:33:40;;;;;;;8.95;1.25;;;6.30;99.90;;;;;;5036593;28;20049;-89
2023/01/15 05:36:10;;;;;;;10.50;2.15;;;6.30;99.90;;;;;;5013914;28;20041;-89
2023/01/15 05:38:37;;;;;;;10.65;1.98;;;6.20;99.90;;;;;;5013784;28;20040;-90
2023/01/15 05:43:56;;;;;;;6.88;1.60;;;6.20;99.90;;;;;;5015461;28;20044;-89
2023/01/15 05:46:22;;;;;;;11.18;1.88;;;6.20;99.90;;;;;;5014023;28;20026;-89
2023/01/15 05:48:48;;;;;;;8.02;1.60;;;6.20;99.90;;;;;;5013401;28;20030;-89
2023/01/15 05:51:16;;;;;;;10.85;1.63;;;6.20;99.90;;;;;;5013717;28;20030;-88
2023/01/15 05:53:43;;;;;;;8.90;1.55;;;6.20;99.90;;;;;;5014940;28;20026;-88
2023/01/15 05:56:09;;;;;;;8.30;1.50;;;6.20;99.90;;;;;;5013431;28;20029;-89
2023/01/15 05:58:35;;;;;;;10.25;1.50;;;6.10;99.90;;;;;;5013442;28;20030;-88
2023/01/15 06:01:07;;;;;;;7.88;1.40;;;6.20;99.90;;;;;;5013450;28;20030;-89
2023/01/15 06:03:32;;;;;;;8.85;1.90;;;6.10;99.90;;;;;;5013498;28;20025;-91
2023/01/15 06:05:58;;;;;;;13.45;2.33;;;6.20;99.90;;;;;;5019467;28;20036;-92
2023/01/15 06:08:25;;;;;;;11.13;1.65;;;6.20;99.90;;;;;;4989720;28;20370;-88
2023/01/15 06:10:50;;;;;;;10.02;1.63;;;6.20;99.90;;;;;;5005384;28;20133;-88
2023/01/15 06:13:20;;;;;;;7.50;1.65;;;6.30;99.90;;;;;;5025342;28;20470;-88
2023/01/15 06:15:45;;;;;;;7.63;1.00;;;6.30;99.90;;;;;;5010732;28;20040;-89
2023/01/15 06:18:15;;;;;;;6.20;1.33;;;6.30;99.90;;;;;;5013701;28;20120;-88
2023/01/15 06:20:41;;;;;;;10.93;1.60;;;6.30;99.90;;;;;;5017317;28;20026;-89
2023/01/15 06:23:08;;;;;;;8.80;1.58;;;6.30;99.90;;;;;;5021713;28;20072;-88
2023/01/15 06:25:38;;;;;;;6.22;1.25;;;6.30;99.90;;;;;;5001734;28;20049;-90
2023/01/15 06:28:06;;;;;;;11.18;1.55;;;6.20;99.90;;;;;;4996564;28;20436;-88
2023/01/15 06:30:38;;;;;;;8.52;1.30;;;6.20;99.90;;;;;;4996350;28;20144;-88
2023/01/15 06:33:04;;;;;;;7.60;1.20;;;6.20;99.90;;;;;;4980189;28;20080;-89
2023/01/15 06:35:30;;;;;;;8.50;1.23;;;6.20;99.90;;;;;;4996497;28;20477;-88
2023/01/15 06:38:00;;;;;;;6.97;1.10;;;6.10;99.90;;;;;;4996112;28;20030;-88
2023/01/15 06:40:31;;;;;;;9.85;1.20;;;6.10;99.90;;;;;;4996144;28;20021;-89
2023/01/15 06:48:39;;;;;;;11.23;1.40;;;6.20;99.90;;;;;;5016771;28;20068;-89
2023/01/15 06:51:05;;;;;;;8.23;1.17;;;6.10;99.90;;;;;;5016070;28;20034;-88
2023/01/15 06:53:30;;;;;;;7.13;1.40;;;6.10;99.90;;;;;;5033432;28;20041;-89
2023/01/15 06:55:57;;;;;;;5.13;1.17;;;6.10;99.90;;;;;;5015868;28;20026;-90
2023/01/15 06:58:23;;;;;;;8.55;1.67;;;6.10;99.90;;;;;;5016058;28;20393;-89
2023/01/15 07:00:54;;;;;;;8.65;1.40;;;6.10;99.90;;;;;;5015433;28;20018;-89
2023/01/15 07:03:21;;;;;;;10.40;1.20;;;6.10;99.90;;;;;;5015564;28;20029;-89
2023/01/15 07:05:47;;;;;;;10.30;1.85;;;6.20;99.90;;;;;;5015497;28;20030;-89
2023/01/15 07:08:24;;;;;;;7.10;1.30;;;6.10;99.90;;;;;;5033339;28;20033;-90
2023/01/15 07:10:53;;;;;;;5.75;1.10;;;5.90;99.90;;;;;;5015795;28;20025;-88
2023/01/15 07:13:22;;;;;;;8.27;1.10;;;5.50;99.90;;;;;;5015915;28;20449;-88
2023/01/15 07:15:48;;;;;;;8.13;1.00;;;5.30;99.90;;;;;;5015793;28;20029;-88
2023/01/15 07:18:20;;;;;;;7.25;1.10;;;5.20;99.90;;;;;;5015395;28;20076;-88
2023/01/15 07:20:46;;;;;;;6.32;1.00;;;5.10;99.90;;;;;;5035078;28;20022;-89
2023/01/15 07:23:15;;;;;;;13.18;1.17;;;5.10;99.90;;;;;;5037503;28;20026;-88
2023/01/15 07:25:41;;;;;;;10.43;2.08;;;5.10;99.90;;;;;;5019499;28;20037;-87
2023/01/15 07:28:13;;;;;;;11.55;2.20;;;5.10;99.90;;;;;;5019207;28;20489;-88
2023/01/15 07:31:02;;;;;;;7.32;1.25;;;5.10;99.90;;;;;;5037418;28;20045;-87
2023/01/15 07:33:30;;;;;;;7.65;1.40;;;5.10;99.90;;;;;;5019183;28;20033;-88
2023/01/15 07:36:05;;;;;;;6.93;1.25;;;5.00;99.90;;;;;;5020037;28;20496;-88
2023/01/15 07:38:31;;;;;;;7.82;1.23;;;5.00;99.90;;;;;;5019030;28;20021;-96
2023/01/15 07:49:44;;;;;;;9.23;1.40;;;5.00;99.90;;;;;;5035757;28;20244;-89
2023/01/15 07:52:11;;;;;;;9.30;1.23;;;5.00;99.90;;;;;;5004495;28;20501;-89
2023/01/15 07:54:37;;;;;;;8.27;1.27;;;5.00;99.90;;;;;;5018327;28;20120;-88
2023/01/15 07:57:03;;;;;;;11.13;2.38;;;5.10;99.90;;;;;;5017986;28;20497;-89
2023/01/15 07:59:35;;;;;;;10.38;1.20;;;5.10;99.90;;;;;;5035988;28;20025;-90
2023/01/15 08:02:04;;;;;;;8.00;1.42;;;5.10;99.90;;;;;;5018685;28;20025;-90
2023/01/15 08:04:30;;;;;;;11.68;1.30;;;5.20;99.90;;;;;;5002576;28;20465;-90
2023/01/15 08:06:59;;;;;;;8.70;1.30;;;5.20;99.90;;;;;;5002176;28;20040;-90
2023/01/15 08:09:25;;;;;;;8.00;1.90;;;5.20;99.90;;;;;;5036283;28;20057;-88
2023/01/15 08:17:22;;;;;;;7.47;1.05;;;5.30;99.90;;;;;;5036475;28;20036;-89
2023/01/15 08:19:50;;;;;;;4.97;1.35;;;5.30;99.90;;;;;;5035991;28;20026;-89
2023/01/15 08:22:16;;;;;;;9.55;1.50;;;5.30;99.90;;;;;;5018865;28;20021;-90
2023/01/15 08:24:42;;;;;;;14.23;1.45;;;5.30;99.90;;;;;;5018165;28;20025;-90
2023/01/15 08:27:07;;;;;;;11.07;1.30;;;5.30;99.90;;;;;;5018230;28;20017;-89
2023/01/15 08:29:39;;;;;;;6.80;1.30;;;5.30;99.90;;;;;;5017407;28;20045;-89
2023/01/15 08:32:09;;;;;;;8.15;1.70;;;5.40;99.90;;;;;;5019359;28;20025;-89
2023/01/15 08:34:36;;;;;;;13.38;1.83;;;5.40;99.90;;;;;;5019379;28;20033;-89
2023/01/15 08:37:01;;;;;;;7.85;1.58;;;5.40;99.90;;;;;;5017635;28;20488;-89
2023/01/15 08:39:28;;;;;;;10.80;1.30;;;5.40;99.90;;;;;;5017363;28;20040;-89
2023/01/15 08:41:57;;;;;;;5.65;1.20;;;5.40;99.90;;;;;;5018037;28;20469;-88
2023/01/15 08:44:24;;;;;;;7.38;1.70;;;5.50;99.90;;;;;;5017995;28;20084;-89
2023/01/15 08:46:52;;;;;;;6.65;1.33;;;5.50;99.90;;;;;;5017758;28;20546;-90
2023/01/15 08:49:19;;;;;;;8.20;1.63;;;5.50;99.90;;;;;;5035760;28;20640;-88
2023/01/15 08:51:48;;;;;;;9.23;1.38;;;5.60;99.90;;;;;;5017767;28;20033;-91
2023/01/15 08:54:18;;;;;;;10.63;1.48;;;5.60;99.90;;;;;;5017925;28;20017;-90
2023/01/15 08:56:46;;;;;;;10.30;1.63;;;5.60;99.90;;;;;;5017336;28;20021;-89
2023/01/15 08:59:37;;;;;;;10.50;1.52;;;5.70;99.90;;;;;;5018299;28;20029;-88
2023/01/15 09:02:05;;;;;;;10.05;1.40;;;5.70;99.90;;;;;;5035534;28;20492;-88
2023/01/15 09:04:36;;;;;;;18.02;2.00;;;5.70;99.90;;;;;;5017587;28;20025;-88
2023/01/15 09:07:01;;;;;;;15.18;2.03;;;5.80;99.90;;;;;;5017688;28;20076;-90
2023/01/15 09:09:27;;;;;;;9.25;1.27;;;5.80;99.90;;;;;;5016293;28;20440;-88
2023/01/15 09:11:53;;;;;;;10.57;1.20;;;6.00;99.90;;;;;;5017494;28;20032;-89
2023/01/15 09:14:19;;;;;;;6.03;1.02;;;6.90;99.90;;;;;;5017164;28;20028;-90
2023/01/15 09:16:54;;;;;;;10.68;1.30;;;7.80;99.90;;;;;;5018606;28;20029;-90
2023/01/15 09:19:20;;;;;;;6.88;1.60;;;8.50;99.90;;;;;;5017499;28;20033;-89
2023/01/15 09:21:46;;;;;;;11.73;1.42;;;9.00;99.90;;;;;;5016787;28;20029;-89
2023/01/15 09:24:12;;;;;;;5.40;1.23;;;9.30;99.90;;;;;;5016155;28;20037;-90
2023/01/15 09:26:39;;;;;;;6.05;1.65;;;9.70;99.90;;;;;;5016822;28;20026;-90
2023/01/15 09:29:07;;;;;;;6.95;1.20;;;10.00;99.90;;;;;;5017042;28;20040;-89
2023/01/15 09:31:34;;;;;;;6.35;1.05;;;10.30;99.90;;;;;;5016865;28;20046;-88
2023/01/15 09:34:00;;;;;;;7.80;1.10;;;10.40;99.90;;;;;;5016722;28;20024;-88
2023/01/15 09:36:31;;;;;;;6.03;1.35;;;10.60;99.90;;;;;;5034662;28;20029;-88
2023/01/15 09:39:00;;;;;;;7.60;1.58;;;10.60;99.90;;;;;;5034030;28;20100;-88
2023/01/15 09:44:35;;;;;;;6.65;1.02;;;10.80;99.90;;;;;;5013288;28;20041;-89
2023/01/15 09:47:28;;;;;;;7.15;1.38;;;11.10;99.90;;;;;;4996572;28;20022;-91
2023/01/15 09:50:40;;;;;;;8.38;1.25;;;11.30;99.90;;;;;;4997049;28;20037;-88
2023/01/15 09:53:36;;;;;;;6.07;1.02;;;11.50;99.90;;;;;;4974417;28;20569;-89
2023/01/15 09:56:04;;;;;;;7.38;1.33;;;11.50;99.90;;;;;;4996986;28;20022;-90
2023/01/15 09:58:40;;;;;;;8.25;1.38;;;11.90;99.90;;;;;;4996974;28;20044;-88
2023/01/15 10:01:19;;;;;;;9.50;1.27;;;12.10;99.90;;;;;;4996547;28;20500;-90
2023/01/15 10:03:58;;;;;;;9.02;1.60;;;12.20;99.90;;;;;;4997967;28;20026;-88
2023/01/15 10:06:41;;;;;;;6.05;1.50;;;12.30;99.90;;;;;;4997311;28;20030;-88
2023/01/15 10:09:38;;;;;;;9.20;1.37;;;12.50;99.90;;;;;;4997294;28;20033;-88
2023/01/15 10:12:34;;;;;;;7.22;1.35;;;12.50;99.90;;;;;;4997356;28;20069;-89
2023/01/15 10:15:07;;;;;;;7.57;1.30;;;12.20;99.90;;;;;;5004507;28;20025;-89
2023/01/15 10:17:42;;;;;;;7.38;1.80;;;12.50;99.90;;;;;;5008009;28;20014;-90
2023/01/15 10:20:44;;;;;;;6.63;1.45;;;12.50;99.90;;;;;;5025664;28;20029;-91
2023/01/15 10:23:23;;;;;;;5.32;1.45;;;12.30;99.90;;;;;;4988879;28;20022;-89
2023/01/15 10:26:11;;;;;;;5.70;1.42;;;12.30;99.90;;;;;;5015097;28;20057;-89
2023/01/15 10:29:02;;;;;;;4.68;1.30;;;12.40;99.90;;;;;;5002130;28;20034;-89
2023/01/15 10:32:06;;;;;;;5.78;1.20;;;12.60;99.90;;;;;;5003163;28;20030;-88
2023/01/15 10:34:40;;;;;;;5.53;1.58;;;12.50;99.90;;;;;;5013226;28;20117;-91
2023/01/15 10:37:44;;;;;;;6.50;1.27;;;12.80;99.90;;;;;;5013214;28;20032;-91
2023/01/15 10:40:32;;;;;;;6.35;1.20;;;12.80;99.90;;;;;;5013363;28;20111;-89
2023/01/15 10:43:29;;;;;;;9.25;1.35;;;12.50;99.90;;;;;;5013463;28;20678;-91
2023/01/15 10:46:14;;;;;;;6.32;1.20;;;12.50;99.90;;;;;;5013414;28;20053;-90
2023/01/15 10:49:03;;;;;;;9.32;2.13;;;12.20;99.90;;;;;;5012948;28;20057;-90
2023/01/15 10:51:54;;;;;;;8.65;1.33;;;11.20;99.90;;;;;;4996076;28;20080;-90
2023/01/15 10:54:23;;;;;;;6.10;1.20;;;10.30;99.90;;;;;;5012077;28;20022;-91
2023/01/15 10:57:01;;;;;;;8.32;1.10;;;9.80;99.90;;;;;;5012741;28;20383;-90
2023/01/15 10:59:46;;;;;;;6.05;1.77;;;9.70;99.90;;;;;;5013124;28;20026;-90
2023/01/15 11:02:27;;;;;;;10.57;1.65;;;9.40;99.90;;;;;;5012886;28;20026;-92
2023/01/15 11:04:57;;;;;;;9.35;1.38;;;9.10;99.90;;;;;;5012450;28;20024;-91
2023/01/15 11:07:41;;;;;;;8.93;1.23;;;8.80;99.90;;;;;;5012493;28;20045;-90
2023/01/15 11:10:20;;;;;;;9.73;1.40;;;8.60;99.90;;;;;;5010800;28;20050;-92
2023/01/15 11:21:29;;;;;;;8.57;1.10;;;10.00;99.90;;;;;;5013769;28;20037;-91
2023/01/15 11:23:56;;;;;;;5.45;1.30;;;10.60;99.90;;;;;;4998909;28;20030;-90
2023/01/15 11:26:32;;;;;;;10.55;1.50;;;10.40;99.90;;;;;;4995719;28;20087;-91
2023/01/15 11:29:13;;;;;;;8.82;1.23;;;9.80;99.90;;;;;;4994620;28;20040;-88
2023/01/15 11:32:00;;;;;;;8.77;1.27;;;9.20;99.90;;;;;;5002491;28;20454;-88
2023/01/15 11:37:29;;;;;;;8.45;1.25;;;8.50;99.90;;;;;;5008125;28;20552;-90
2023/01/15 11:40:06;;;;;;;7.63;1.52;;;8.40;99.90;;;;;;4995368;28;20025;-89
2023/01/15 11:51:28;;;;;;;7.20;1.00;;;8.90;99.90;;;;;;5013386;28;20040;-91
2023/01/15 11:54:03;;;;;;;7.03;1.35;;;8.80;99.90;;;;;;4995122;28;20125;-89
2023/01/15 11:56:30;;;;;;;7.63;1.88;;;8.50;99.90;;;;;;4996047;28;20486;-91
2023/01/15 11:59:01;;;;;;;9.30;1.70;;;8.10;99.90;;;;;;4996006;28;20022;-89
2023/01/15 12:01:35;;;;;;;8.65;1.88;;;7.50;99.90;;;;;;4995789;28;20057;-89
2023/01/15 12:04:04;;;;;;;9.20;1.42;;;7.20;99.90;;;;;;5012998;28;20474;-89
2023/01/15 12:06:36;;;;;;;11.13;1.60;;;7.10;99.90;;;;;;5014592;28;20026;-89
2023/01/15 12:09:34;;;;;;;5.50;1.05;;;7.10;99.90;;;;;;5003260;28;20386;-88
2023/01/15 12:12:24;;;;;;;9.05;1.60;;;7.10;99.90;;;;;;5018094;28;20545;-89
2023/01/15 12:15:27;;;;;;;7.82;1.55;;;7.20;99.90;;;;;;5018282;28;20049;-89
2023/01/15 12:18:25;;;;;;;6.83;1.07;;;7.50;99.90;;;;;;5018233;28;20033;-91
2023/01/15 12:20:54;;;;;;;11.80;1.20;;;7.70;99.90;;;;;;5037645;28;20028;-89
2023/01/15 12:23:41;;;;;;;6.45;1.15;;;8.00;99.90;;;;;;5018430;28;20025;-89
2023/01/15 12:26:33;;;;;;;6.20;1.10;;;8.10;99.90;;;;;;5017981;28;20040;-91
2023/01/15 12:29:05;;;;;;;11.40;1.13;;;8.30;99.90;;;;;;5015700;28;20034;-90
2023/01/15 12:31:51;;;;;;;6.72;1.20;;;8.40;99.90;;;;;;5010821;28;20533;-91
2023/01/15 12:34:41;;;;;;;5.70;1.02;;;8.40;99.90;;;;;;4995827;28;20036;-92
2023/01/15 12:37:21;;;;;;;7.90;1.20;;;8.30;99.90;;;;;;5000463;28;20049;-91
2023/01/15 12:39:56;;;;;;;5.90;1.25;;;8.10;99.90;;;;;;4996996;28;20037;-89
2023/01/15 12:45:36;;;;;;;6.30;1.30;;;7.20;99.90;;;;;;5015775;28;20507;-88
2023/01/15 12:48:42;;;;;;;7.80;1.65;;;6.70;99.90;;;;;;5006202;28;20394;-91
2023/01/15 12:51:17;;;;;;;4.95;1.15;;;6.50;99.90;;;;;;4993796;28;20142;-88
2023/01/15 12:53:55;;;;;;;5.18;1.15;;;6.50;99.90;;;;;;4998992;28;20025;-88
2023/01/15 12:56:34;;;;;;;4.72;0.95;;;6.50;99.90;;;;;;4999191;28;20021;-91
2023/01/15 12:59:20;;;;;;;5.00;1.45;;;6.50;99.90;;;;;;4998375;28;20436;-91
2023/01/15 13:02:09;;;;;;;5.25;1.02;;;6.40;99.90;;;;;;5005617;28;20026;-91
2023/01/15 13:05:16;;;;;;;5.65;0.93;;;6.40;99.90;;;;;;5035971;28;20026;-91
2023/01/15 13:08:16;;;;;;;5.93;1.35;;;6.50;99.90;;;;;;5008255;28;20026;-89
2023/01/15 13:10:47;;;;;;;6.80;1.38;;;6.60;99.90;;;;;;5003844;28;20026;-90
2023/01/15 13:13:23;;;;;;;8.43;1.45;;;6.70;99.90;;;;;;4998398;28;20033;-90
2023/01/15 13:16:20;;;;;;;5.65;1.15;;;6.90;99.90;;;;;;4998328;28;20108;-89
2023/01/15 13:19:07;;;;;;;6.70;1.50;;;7.00;99.90;;;;;;5012592;28;20038;-92
2023/01/15 13:21:39;;;;;;;5.60;1.08;;;7.10;99.90;;;;;;4998543;28;20054;-91
2023/01/15 13:24:42;;;;;;;6.90;1.30;;;7.10;99.90;;;;;;4997927;28;20022;-88
2023/01/15 13:27:29;;;;;;;6.15;1.30;;;7.20;99.90;;;;;;4977180;28;20040;-89
2023/01/15 13:30:45;;;;;;;9.55;1.67;;;7.20;99.90;;;;;;4995604;28;20120;-89
2023/01/15 13:33:23;;;;;;;5.13;1.20;;;7.20;99.90;;;;;;4996377;28;20058;-89
2023/01/15 13:36:15;;;;;;;7.55;1.83;;;7.20;99.90;;;;;;4997754;28;20030;-89
2023/01/15 13:39:08;;;;;;;6.43;1.45;;;7.20;99.90;;;;;;5018560;28;20029;-90
2023/01/15 13:44:35;;;;;;;6.68;1.48;;;8.30;99.90;;;;;;5004175;28;20061;-89
2023/01/15 13:47:27;;;;;;;9.45;1.85;;;8.30;99.90;;;;;;4998730;28;20042;-89
2023/01/15 13:50:12;;;;;;;7.47;1.27;;;8.00;99.90;;;;;;4997348;28;20040;-89
2023/01/15 13:52:54;;;;;;;6.55;1.92;;;7.70;99.90;;;;;;5015339;28;20030;-91
2023/01/15 13:55:40;;;;;;;5.38;1.38;;;7.40;99.90;;;;;;4997237;28;20026;-91
2023/01/15 13:58:59;;;;;;;6.25;1.45;;;7.20;99.90;;;;;;4997682;28;20022;-89
2023/01/15 14:01:38;;;;;;;8.82;1.40;;;7.20;99.90;;;;;;5008105;28;20030;-89
2023/01/15 14:04:36;;;;;;;10.85;1.38;;;7.00;99.90;;;;;;4997223;28;20018;-89
2023/01/15 14:07:40;;;;;;;6.22;1.60;;;6.70;99.90;;;;;;4997038;28;20026;-89
2023/01/15 14:11:01;;;;;;;5.47;1.60;;;6.60;99.90;;;;;;5013649;28;20026;-90
2023/01/15 14:13:54;;;;;;;9.57;1.38;;;6.40;99.90;;;;;;4996842;28;20033;-89
2023/01/15 14:16:36;;;;;;;6.15;1.50;;;6.30;99.90;;;;;;4992107;28;20092;-91
2023/01/15 14:19:17;;;;;;;7.18;2.05;;;6.30;99.90;;;;;;5002130;28;20030;-87
2023/01/15 14:22:11;;;;;;;5.38;1.30;;;6.30;99.90;;;;;;4998144;28;20030;-88
2023/01/15 14:24:39;;;;;;;;;;;6.30;99.90;;;;;;4997609;28;20025;-89
2023/01/15 14:27:36;;;;;;;9.80;1.65;;;6.40;99.90;;;;;;4996936;28;19917;-89
2023/01/15 14:30:28;;;;;;;6.30;1.30;;;6.30;99.90;;;;;;4995459;28;20057;-88
2023/01/15 14:33:20;;;;;;;7.70;1.38;;;6.40;99.90;;;;;;5014001;28;20046;-89
2023/01/15 14:35:48;;;;;;;7.93;1.45;;;6.50;99.90;;;;;;4996609;28;20073;-89
2023/01/15 14:38:28;;;;;;;5.25;1.40;;;6.50;99.90;;;;;;4996489;28;20117;-88
2023/01/15 14:41:00;;;;;;;9.38;1.85;;;6.60;99.90;;;;;;4996896;28;20037;-91